Terminal Aerodrome Forecast
Issued by NWS Amarillo, TX

Home | Current Version | Previous Version | Text Only | Print | Product List | Glossary On
Versions: 1 2 3 4 5 6 7 8 9 10 11 12 13 14 15 16 17 18 19 20 21 22 23
000
FTUS44 KAMA 031700 RRA
TAFGUY
TAF
KGUY 031752Z 0318/0418 26013KT P6SM SCT100 OVC250
     FM032000 36013KT P6SM SCT040 OVC100
     FM032300 04013KT 5SM -RA BR SCT005 OVC012
     FM040400 04012KT 4SM -RASN BR OVC004
     FM040600 03016G22KT 2SM -SN BR OVC004
     FM041000 03019G28KT 2SM -SN BR OVC003=

USA.gov is the U.S. government's official web portal to all federal, state and local government web resources and services.